Time;durP1;ratioP1;P1;durP2;ratioP2;P2;SDS_P1;SDS_P2;PMS_P1;PMS_P2;Temp;Humidity;BMP_temperature;BMP_pressure;BME280_temperature;BME280_humidity;BME280_pressure;Samples;Min_cycle;Max_cycle;Signal;HPM_P1;HPM_P2
2022/08/09 00:00:06;;;;;;;513.97;468.57;;;;;;;26.38;52.22;99555.88;294143;33;5625;-73
2022/08/09 00:00:17;;;;;;;510.00;464.80;;;;;;;26.37;52.25;99554.22;295341;33;6498;-73
2022/08/09 00:00:27;;;;;;;508.73;463.67;;;;;;;26.37;52.35;99554.22;295057;33;819;-73
2022/08/09 00:00:38;;;;;;;512.70;467.50;;;;;;;26.36;52.58;99564.09;295585;33;5150;-73
2022/08/09 00:00:48;;;;;;;513.70;468.53;;;;;;;26.36;52.81;99564.09;294542;33;5904;-73
2022/08/09 00:00:58;;;;;;;514.45;469.30;;;;;;;26.34;52.45;99555.38;293034;33;1236;-73
2022/08/09 00:01:09;;;;;;;506.90;462.00;;;;;;;26.34;52.48;99559.91;290938;33;6536;-73
2022/08/09 00:01:19;;;;;;;508.60;463.55;;;;;;;26.33;52.62;99559.06;291155;33;4593;-73
2022/08/09 00:01:30;;;;;;;506.97;462.00;;;;;;;26.34;52.56;99562.59;293028;33;1203;-73
2022/08/09 00:01:47;;;;;;;510.75;465.55;;;;;;;26.32;52.28;99562.75;289610;34;4850;-73
2022/08/09 00:01:57;;;;;;;509.58;464.42;;;;;;;26.30;52.54;99554.00;287191;34;1477;-73
2022/08/09 00:02:08;;;;;;;516.72;471.45;;;;;;;26.31;52.44;99555.72;284711;34;6864;-73
2022/08/09 00:02:18;;;;;;;520.00;474.63;;;;;;;26.30;52.62;99550.47;281373;34;8577;-73
2022/08/09 00:02:28;;;;;;;523.25;477.80;;;;;;;26.32;52.28;99559.22;283718;34;876;-73
2022/08/09 00:02:39;;;;;;;517.50;472.20;;;;;;;26.31;52.11;99552.19;281017;34;8744;-73
2022/08/09 00:02:50;;;;;;;507.65;462.85;;;;;;;26.34;52.43;99562.59;276477;35;7015;-73
2022/08/09 00:03:01;;;;;;;504.38;459.50;;;;;;;26.33;52.34;99553.69;277239;35;3543;-73
2022/08/09 00:03:11;;;;;;;503.87;458.97;;;;;;;26.36;52.31;99560.59;277918;35;8148;-74
2022/08/09 00:03:21;;;;;;;509.73;464.65;;;;;;;26.36;52.15;99557.91;277993;35;9258;-74
2022/08/09 00:03:32;;;;;;;509.87;464.90;;;;;;;26.37;52.10;99554.22;278724;35;6598;-72
2022/08/09 00:03:42;;;;;;;505.75;461.02;;;;;;;26.35;51.82;99554.38;276666;35;2151;-72
2022/08/09 00:03:52;;;;;;;501.93;457.33;;;;;;;26.36;52.09;99555.22;275105;35;7152;-72
2022/08/09 00:04:03;;;;;;;500.00;455.40;;;;;;;26.34;52.17;99550.00;271768;36;10380;-72
2022/08/09 00:04:15;;;;;;;508.75;463.83;;;;;;;26.35;52.12;99557.06;270567;36;901;-73
2022/08/09 00:04:25;;;;;;;514.58;469.27;;;;;;;26.35;52.07;99567.78;265826;36;9319;-73
2022/08/09 00:06:18;;;;;;;462.98;418.18;;;;;;;26.36;51.56;99557.91;2501586;27;20475;-74
2022/08/09 00:06:29;;;;;;;489.70;445.23;;;;;;;26.36;51.43;99553.38;356046;27;832;-74
2022/08/09 00:06:39;;;;;;;496.83;452.27;;;;;;;26.37;51.22;99555.03;354556;27;911;-73
2022/08/09 00:06:49;;;;;;;497.95;453.30;;;;;;;26.37;51.67;99555.03;351670;28;1647;-73
2022/08/09 00:07:00;;;;;;;500.57;456.03;;;;;;;26.39;51.45;99554.88;350202;28;1512;-74
2022/08/09 00:07:11;;;;;;;496.33;452.00;;;;;;;26.37;51.21;99559.56;347605;28;934;-74
2022/08/09 00:07:21;;;;;;;490.23;446.07;;;;;;;26.37;51.11;99554.22;348889;28;913;-74
2022/08/09 00:07:31;;;;;;;496.08;451.63;;;;;;;26.36;51.33;99555.22;347479;28;915;-73
2022/08/09 00:07:42;;;;;;;500.67;456.00;;;;;;;26.33;51.09;99558.22;347514;28;901;-73
2022/08/09 00:07:53;;;;;;;501.17;456.50;;;;;;;26.29;51.56;99556.84;348293;28;1476;-74
2022/08/09 00:08:05;;;;;;;495.23;450.77;;;;;;;26.27;51.31;99559.69;348689;28;951;-73
2022/08/09 00:08:16;;;;;;;500.33;455.85;;;;;;;26.27;51.09;99548.13;348968;28;2070;-73
2022/08/09 00:08:26;;;;;;;503.85;459.13;;;;;;;26.28;51.42;99555.16;348703;28;1312;-74
2022/08/09 00:08:36;;;;;;;503.27;458.50;;;;;;;26.28;50.98;99556.00;349033;28;1806;-74
2022/08/09 00:08:49;;;;;;;503.10;458.20;;;;;;;26.27;50.81;99553.47;349190;28;1069;-73
2022/08/09 00:08:59;;;;;;;498.23;453.33;;;;;;;26.27;51.47;99556.16;347584;28;780;-73
2022/08/09 00:09:10;;;;;;;493.67;449.03;;;;;;;26.27;51.19;99558.84;348748;28;1373;-73
2022/08/09 00:09:20;;;;;;;490.75;445.98;;;;;;;26.27;51.15;99553.47;350217;28;1360;-73
2022/08/09 00:09:30;;;;;;;494.77;449.97;;;;;;;26.27;51.09;99553.47;348830;28;1583;-73
2022/08/09 00:09:41;;;;;;;502.50;457.47;;;;;;;26.26;51.01;99549.13;348800;28;921;-73
2022/08/09 00:09:51;;;;;;;504.00;459.27;;;;;;;26.25;50.86;99550.13;347598;28;877;-74
2022/08/09 00:10:02;;;;;;;496.97;452.43;;;;;;;26.24;50.76;99548.44;347524;28;962;-74
2022/08/09 00:10:13;;;;;;;499.25;454.75;;;;;;;26.25;50.76;99553.66;348686;28;1721;-74
2022/08/09 00:10:23;;;;;;;498.50;453.95;;;;;;;26.26;50.14;99552.63;347266;28;1337;-74
2022/08/09 00:10:34;;;;;;;506.38;461.67;;;;;;;26.26;50.42;99551.81;346179;28;957;-73
2022/08/09 00:10:44;;;;;;;507.07;462.37;;;;;;;26.25;50.61;99552.81;346653;28;930;-74
2022/08/09 00:10:55;;;;;;;502.53;457.87;;;;;;;26.24;50.58;99554.66;346280;28;1157;-74
2022/08/09 00:11:05;;;;;;;506.25;461.38;;;;;;;26.26;50.70;99557.16;346744;28;1859;-73
2022/08/09 00:11:18;;;;;;;507.70;462.63;;;;;;;26.25;50.25;99555.50;346507;28;1303;-73
2022/08/09 00:11:28;;;;;;;514.80;469.50;;;;;;;26.25;50.25;99550.97;346226;28;982;-73
2022/08/09 00:11:39;;;;;;;512.00;466.92;;;;;;;26.23;50.25;99552.13;346172;28;859;-73
2022/08/09 00:11:49;;;;;;;511.97;467.17;;;;;;;26.22;50.12;99555.81;346097;28;1385;-73
2022/08/09 00:12:00;;;;;;;509.87;465.23;;;;;;;26.23;50.24;99552.97;342758;28;4684;-73
2022/08/09 00:12:10;;;;;;;514.00;469.02;;;;;;;26.24;50.16;99549.28;342082;28;5192;-73
2022/08/09 00:12:21;;;;;;;512.23;467.10;;;;;;;26.23;50.12;99557.50;340652;28;1292;-73
2022/08/09 00:12:31;;;;;;;515.70;470.35;;;;;;;26.24;50.27;99548.44;343320;28;920;-73
2022/08/09 00:12:41;;;;;;;513.27;468.17;;;;;;;26.23;49.95;99555.66;342881;28;2913;-73
2022/08/09 00:12:52;;;;;;;508.85;464.02;;;;;;;26.26;49.79;99549.13;339481;29;854;-73
2022/08/09 00:13:02;;;;;;;507.80;462.93;;;;;;;26.27;49.96;99550.81;340663;28;1346;-73
2022/08/09 00:13:14;;;;;;;510.45;465.35;;;;;;;26.27;50.04;99558.84;340101;29;902;-73
2022/08/09 00:13:25;;;;;;;517.45;472.17;;;;;;;26.27;49.92;99553.47;342092;28;921;-73
2022/08/09 00:13:35;;;;;;;513.22;468.08;;;;;;;26.25;49.93;99550.13;342056;28;1217;-73
2022/08/09 00:13:45;;;;;;;505.60;460.73;;;;;;;26.25;50.25;99545.59;340480;28;1607;-73
2022/08/09 00:13:56;;;;;;;502.00;457.27;;;;;;;26.22;50.13;99555.81;341423;29;875;-73
2022/08/09 00:14:06;;;;;;;508.10;463.37;;;;;;;26.19;50.37;99552.47;340858;29;794;-73
2022/08/09 00:14:17;;;;;;;515.55;470.63;;;;;;;26.19;50.14;99552.47;340520;29;1367;-73
2022/08/09 00:14:27;;;;;;;522.83;477.63;;;;;;;26.20;50.38;99558.66;339237;28;1480;-73
2022/08/09 00:14:38;;;;;;;525.65;480.33;;;;;;;26.21;50.17;99554.13;335257;29;1916;-73
2022/08/09 00:14:49;;;;;;;524.45;479.25;;;;;;;26.22;50.48;99550.44;335628;29;937;-73
2022/08/09 00:14:59;;;;;;;523.33;478.40;;;;;;;26.22;50.29;99550.44;334855;29;1292;-74
2022/08/09 00:15:10;;;;;;;521.25;476.20;;;;;;;26.22;50.62;99551.28;336228;29;1919;-73
2022/08/09 00:15:20;;;;;;;521.40;476.23;;;;;;;26.22;50.30;99550.44;334995;29;1750;-73
2022/08/09 00:15:31;;;;;;;519.17;473.83;;;;;;;26.21;50.65;99549.59;332998;29;1367;-73
2022/08/09 00:15:42;;;;;;;523.17;477.58;;;;;;;26.19;50.82;99547.09;332838;29;972;-73
2022/08/09 00:15:52;;;;;;;526.57;480.73;;;;;;;26.19;50.99;99546.25;334298;29;1204;-73
2022/08/09 00:16:03;;;;;;;521.22;475.63;;;;;;;26.19;50.53;99552.47;329199;30;1944;-73
2022/08/09 00:16:13;;;;;;;517.57;472.10;;;;;;;26.21;50.62;99546.09;326512;30;1460;-73
2022/08/09 00:16:23;;;;;;;516.60;471.25;;;;;;;26.19;50.87;99547.09;326748;30;1792;-73
2022/08/09 00:16:34;;;;;;;523.57;478.17;;;;;;;26.18;51.15;99549.94;327521;30;1285;-73
2022/08/09 00:16:44;;;;;;;527.35;482.05;;;;;;;26.18;50.96;99548.09;324402;30;2049;-73
2022/08/09 00:16:55;;;;;;;527.00;481.80;;;;;;;26.23;50.81;99552.13;326183;29;1983;-73
2022/08/09 00:17:06;;;;;;;525.88;480.73;;;;;;;26.24;50.84;99551.13;326704;30;1538;-73
2022/08/09 00:17:16;;;;;;;525.10;479.90;;;;;;;26.23;50.75;99546.75;326818;30;2084;-74
2022/08/09 00:17:26;;;;;;;525.60;480.42;;;;;;;26.24;50.82;99548.44;324516;30;1910;-74
2022/08/09 00:17:37;;;;;;;525.47;480.27;;;;;;;26.23;50.78;99550.28;323207;30;1297;-73
2022/08/09 00:17:47;;;;;;;522.13;476.90;;;;;;;26.23;50.83;99544.91;324294;30;860;-74
2022/08/09 00:17:58;;;;;;;514.73;469.73;;;;;;;26.19;50.53;99547.09;325325;30;1851;-74
2022/08/09 00:18:08;;;;;;;519.17;473.97;;;;;;;26.18;50.17;99545.41;322891;30;1525;-73
2022/08/09 00:18:18;;;;;;;521.63;476.58;;;;;;;26.21;50.29;99548.75;323211;30;873;-73
2022/08/09 00:18:30;;;;;;;524.00;478.83;;;;;;;26.21;50.64;99559.50;321921;30;1770;-73
2022/08/09 00:18:40;;;;;;;517.97;472.80;;;;;;;26.22;50.54;99550.44;320877;30;2346;-73
2022/08/09 00:18:51;;;;;;;518.63;473.47;;;;;;;26.21;50.34;99544.25;322112;30;1765;-73
2022/08/09 00:19:03;;;;;;;521.70;476.50;;;;;;;26.21;50.48;99554.13;319381;30;2793;-73
2022/08/09 00:19:14;;;;;;;519.30;474.23;;;;;;;26.22;50.66;99547.75;321368;30;2539;-74
2022/08/09 00:19:24;;;;;;;521.87;476.67;;;;;;;26.22;50.51;99550.44;318359;30;2510;-74
2022/08/09 00:19:34;;;;;;;524.42;479.13;;;;;;;26.23;50.47;99547.59;316339;31;1851;-74
2022/08/09 00:19:45;;;;;;;526.67;481.30;;;;;;;26.22;50.64;99545.91;317291;31;1696;-74
2022/08/09 00:19:55;;;;;;;520.30;475.08;;;;;;;26.22;50.70;99553.13;317419;30;962;-74
2022/08/09 00:20:07;;;;;;;518.33;473.03;;;;;;;26.22;50.35;99545.09;317177;31;1274;-74
2022/08/09 00:20:17;;;;;;;521.67;476.30;;;;;;;26.19;50.43;99547.09;316232;31;2046;-73
2022/08/09 00:20:28;;;;;;;523.77;478.43;;;;;;;26.17;50.49;99546.41;311553;31;2314;-73
2022/08/09 00:20:39;;;;;;;520.15;475.08;;;;;;;26.17;50.47;99546.41;311150;31;2953;-73
2022/08/09 00:20:49;;;;;;;520.70;475.65;;;;;;;26.17;50.72;99543.72;309582;31;879;-74
2022/08/09 00:21:01;;;;;;;519.03;473.90;;;;;;;26.17;50.24;99543.72;307302;32;3514;-74
2022/08/09 00:21:11;;;;;;;524.65;479.33;;;;;;;26.18;50.36;99550.78;307259;31;8222;-73
2022/08/09 00:21:22;;;;;;;517.58;472.48;;;;;;;26.19;50.13;99543.56;312833;31;5181;-73
2022/08/09 00:21:32;;;;;;;518.37;473.07;;;;;;;26.21;50.55;99538.03;314251;31;3394;-73
2022/08/09 00:21:43;;;;;;;513.23;468.10;;;;;;;26.17;50.36;99538.38;313707;31;3120;-73
2022/08/09 00:21:53;;;;;;;514.00;468.73;;;;;;;26.18;50.57;99542.72;312647;31;5525;-73
2022/08/09 00:22:04;;;;;;;514.03;468.87;;;;;;;26.19;50.19;99541.72;310685;31;884;-73
2022/08/09 00:22:14;;;;;;;512.05;466.92;;;;;;;26.19;50.62;99541.72;308195;31;2257;-73
2022/08/09 00:22:24;;;;;;;513.90;468.70;;;;;;;26.21;50.30;99544.25;306093;32;2874;-73
2022/08/09 00:22:35;;;;;;;513.38;468.30;;;;;;;26.18;50.67;99542.72;307486;32;835;-73
2022/08/09 00:22:45;;;;;;;521.80;476.57;;;;;;;26.16;50.50;99536.69;303521;32;3323;-73
2022/08/09 00:22:56;;;;;;;526.00;480.73;;;;;;;26.16;50.60;99541.22;304703;31;5883;-73
2022/08/09 00:23:06;;;;;;;528.92;483.67;;;;;;;26.16;50.42;99541.22;304978;32;1799;-73
2022/08/09 00:23:17;;;;;;;533.00;487.50;;;;;;;26.17;50.47;99538.38;306376;32;4327;-73
2022/08/09 00:23:27;;;;;;;531.78;486.27;;;;;;;26.16;50.60;99538.53;300048;32;4891;-73
2022/08/09 00:23:38;;;;;;;535.37;489.50;;;;;;;26.17;50.59;99546.41;298958;33;4526;-73
2022/08/09 00:23:48;;;;;;;532.58;486.75;;;;;;;26.18;50.44;99539.19;296895;33;1741;-73
2022/08/09 00:23:58;;;;;;;528.83;483.10;;;;;;;26.15;50.47;99543.06;299025;32;4073;-73
2022/08/09 00:24:09;;;;;;;523.67;478.38;;;;;;;26.13;50.38;99538.84;300684;32;2849;-73
2022/08/09 00:24:19;;;;;;;528.90;483.67;;;;;;;26.15;50.50;99545.72;302091;32;837;-73
2022/08/09 00:24:30;;;;;;;527.45;482.40;;;;;;;26.17;50.47;99537.53;303771;32;3118;-73
2022/08/09 00:24:41;;;;;;;527.70;482.45;;;;;;;26.17;50.72;99541.03;301761;32;4180;-73
2022/08/09 00:24:51;;;;;;;523.77;478.47;;;;;;;26.17;50.63;99541.03;298041;33;950;-73
2022/08/09 00:25:02;;;;;;;527.17;481.65;;;;;;;26.17;50.60;99537.53;296101;33;4843;-73
2022/08/09 00:25:12;;;;;;;523.03;477.77;;;;;;;26.16;50.29;99536.69;293832;33;5332;-73
2022/08/09 00:25:22;;;;;;;529.53;484.17;;;;;;;26.17;50.40;99540.19;294994;33;1334;-73
2022/08/09 00:25:33;;;;;;;531.65;486.17;;;;;;;26.15;50.61;99543.06;292931;33;1827;-73
2022/08/09 00:25:43;;;;;;;529.30;483.73;;;;;;;26.16;50.49;99542.03;293319;33;6941;-73
2022/08/09 00:25:54;;;;;;;526.72;481.20;;;;;;;26.16;50.34;99535.84;293906;33;6616;-73
2022/08/09 00:26:05;;;;;;;528.50;482.87;;;;;;;26.13;50.42;99537.00;291108;34;1218;-73
2022/08/09 00:26:16;;;;;;;526.95;481.25;;;;;;;26.12;50.70;99545.22;290056;33;6049;-73
2022/08/09 00:26:27;;;;;;;522.37;476.77;;;;;;;26.11;50.47;99544.38;289093;33;4080;-73
2022/08/09 00:26:38;;;;;;;522.90;477.27;;;;;;;26.11;50.58;99536.34;289031;33;5007;-73
2022/08/09 00:26:48;;;;;;;518.33;473.00;;;;;;;26.09;50.83;99537.50;290219;34;884;-73
2022/08/09 00:26:59;;;;;;;520.95;475.63;;;;;;;26.06;50.49;99541.34;288046;34;7466;-73
2022/08/09 00:27:09;;;;;;;519.13;473.87;;;;;;;26.06;50.71;99541.34;284835;34;7098;-73
2022/08/09 00:27:20;;;;;;;518.10;472.80;;;;;;;26.05;50.90;99542.34;284623;34;1532;-73
2022/08/09 00:27:30;;;;;;;511.30;466.27;;;;;;;26.05;50.77;99538.81;285352;34;7811;-73
2022/08/09 00:27:40;;;;;;;515.35;470.23;;;;;;;26.06;51.10;99538.66;285041;34;8978;-73
2022/08/09 00:27:51;;;;;;;521.33;476.07;;;;;;;26.05;50.69;99545.03;286822;34;1208;-73
2022/08/09 00:28:02;;;;;;;522.50;477.17;;;;;;;26.03;51.02;99544.34;283292;34;9470;-73
2022/08/09 00:28:13;;;;;;;517.72;472.35;;;;;;;26.02;50.88;99542.66;280977;34;9473;-73
2022/08/09 00:30:07;;;;;;;469.13;422.89;;;;;;;26.02;50.66;99542.66;2501576;27;20258;-73
2022/08/09 00:30:17;;;;;;;495.85;450.67;;;;;;;25.98;50.82;99545.88;355388;27;2836;-73
2022/08/09 00:30:28;;;;;;;506.77;461.67;;;;;;;25.94;50.75;99536.47;351629;27;4267;-73
2022/08/09 00:30:38;;;;;;;503.23;458.25;;;;;;;25.94;50.79;99542.69;350546;28;5697;-73
2022/08/09 00:30:49;;;;;;;513.90;468.37;;;;;;;25.96;50.87;99546.03;350632;28;1711;-73
2022/08/09 00:31:01;;;;;;;505.58;460.30;;;;;;;25.99;50.74;99539.50;349287;28;5222;-73
2022/08/09 00:31:11;;;;;;;511.00;465.52;;;;;;;25.98;51.07;99541.34;347491;28;856;-73
2022/08/09 00:31:22;;;;;;;511.27;466.10;;;;;;;25.98;50.70;99538.66;347436;28;1380;-73
2022/08/09 00:31:33;;;;;;;511.77;466.65;;;;;;;25.96;51.03;99545.19;347373;28;1226;-73
2022/08/09 00:31:43;;;;;;;512.90;467.92;;;;;;;25.96;50.76;99542.50;347498;28;953;-73
2022/08/09 00:31:53;;;;;;;519.07;473.73;;;;;;;25.93;50.84;99543.69;347490;28;1299;-73
2022/08/09 00:32:04;;;;;;;522.43;477.13;;;;;;;25.95;50.87;99552.41;348658;28;1259;-73
2022/08/09 00:32:15;;;;;;;524.75;479.42;;;;;;;25.95;50.82;99543.50;350322;28;1010;-73
2022/08/09 00:32:25;;;;;;;518.13;473.02;;;;;;;25.95;51.28;99546.19;350615;28;1580;-73
2022/08/09 00:32:36;;;;;;;519.23;473.97;;;;;;;25.94;50.92;99542.69;348875;28;923;-74
2022/08/09 00:32:46;;;;;;;515.08;470.02;;;;;;;25.94;50.77;99542.69;346105;28;1448;-74
2022/08/09 00:32:56;;;;;;;519.60;474.43;;;;;;;25.95;50.79;99543.50;347588;28;929;-74
2022/08/09 00:33:07;;;;;;;520.05;474.90;;;;;;;25.95;51.00;99541.66;348772;28;1187;-74
2022/08/09 00:33:17;;;;;;;522.43;477.10;;;;;;;25.97;50.75;99545.03;346744;28;1637;-73
2022/08/09 00:33:28;;;;;;;526.60;481.15;;;;;;;26.00;50.91;99551.88;345898;28;1981;-73
2022/08/09 00:33:40;;;;;;;532.27;486.50;;;;;;;25.99;51.00;99547.56;344647;28;2222;-73
2022/08/09 00:33:51;;;;;;;537.65;491.73;;;;;;;25.99;50.80;99543.03;347426;28;1296;-73
2022/08/09 00:34:01;;;;;;;536.63;490.60;;;;;;;25.98;50.96;99544.03;346947;28;1674;-73
2022/08/09 00:34:12;;;;;;;528.38;482.45;;;;;;;26.00;50.88;99550.03;348889;28;1241;-73
2022/08/09 00:34:22;;;;;;;527.03;481.10;;;;;;;26.01;51.12;99550.88;348881;28;856;-73
2022/08/09 00:34:32;;;;;;;521.00;475.37;;;;;;;25.98;51.08;99543.19;346087;28;946;-73
2022/08/09 00:34:44;;;;;;;522.17;476.75;;;;;;;25.96;50.99;99546.03;344236;28;1244;-73
2022/08/09 00:34:55;;;;;;;526.38;480.95;;;;;;;25.97;51.13;99546.88;343662;28;1312;-73
2022/08/09 00:35:07;;;;;;;530.83;485.30;;;;;;;25.98;51.04;99546.72;349733;28;1223;-73
2022/08/09 00:35:17;;;;;;;531.05;485.50;;;;;;;25.99;50.71;99545.72;350141;28;1937;-73
2022/08/09 00:35:27;;;;;;;525.35;479.85;;;;;;;25.98;51.20;99549.41;347001;28;1526;-73
2022/08/09 00:35:38;;;;;;;527.27;481.83;;;;;;;25.99;50.81;99545.72;343499;28;882;-73
2022/08/09 00:35:49;;;;;;;531.40;485.83;;;;;;;25.99;50.99;99540.34;343085;28;1739;-73
2022/08/09 00:35:59;;;;;;;529.47;483.92;;;;;;;26.00;51.41;99547.34;345082;28;1256;-73
2022/08/09 00:36:10;;;;;;;521.13;475.85;;;;;;;26.00;50.81;99547.34;344799;28;930;-73
2022/08/09 00:36:21;;;;;;;520.17;475.02;;;;;;;25.99;51.05;99543.03;344749;28;955;-73
2022/08/09 00:36:32;;;;;;;523.72;478.52;;;;;;;25.96;51.15;99546.03;342282;28;1353;-73
2022/08/09 00:36:42;;;;;;;524.77;479.57;;;;;;;25.94;51.25;99552.56;338728;29;1206;-73
2022/08/09 00:36:52;;;;;;;524.58;479.33;;;;;;;25.93;50.99;99541.00;340790;29;966;-73
2022/08/09 00:37:03;;;;;;;525.23;480.07;;;;;;;25.93;51.39;99543.69;340350;29;1487;-73
2022/08/09 00:37:13;;;;;;;526.80;481.50;;;;;;;25.94;51.26;99544.53;339453;29;1203;-73
2022/08/09 00:37:24;;;;;;;527.85;482.58;;;;;;;25.92;51.15;99550.03;338083;29;914;-73
2022/08/09 00:37:34;;;;;;;525.30;480.05;;;;;;;25.91;51.35;99553.72;342714;28;1226;-73
2022/08/09 00:37:45;;;;;;;528.90;483.60;;;;;;;25.90;51.25;99549.38;343856;28;1011;-73
2022/08/09 00:37:55;;;;;;;531.83;486.43;;;;;;;25.87;51.18;99541.63;341841;28;1613;-73
2022/08/09 00:38:07;;;;;;;535.60;490.05;;;;;;;25.87;51.33;99547.00;341990;28;868;-73
2022/08/09 00:38:17;;;;;;;535.83;490.15;;;;;;;25.86;51.43;99550.69;342138;28;1502;-73
2022/08/09 00:38:28;;;;;;;533.20;487.53;;;;;;;25.88;51.32;99546.00;339641;28;2092;-73
2022/08/09 00:38:38;;;;;;;533.57;487.97;;;;;;;25.89;50.83;99552.22;336337;29;1531;-73
2022/08/09 00:38:49;;;;;;;528.50;483.13;;;;;;;25.90;51.14;99552.03;334210;29;1709;-73
2022/08/09 00:38:59;;;;;;;532.03;486.73;;;;;;;25.91;51.21;99559.09;332782;29;1923;-73
2022/08/09 00:39:10;;;;;;;534.05;488.70;;;;;;;25.93;51.40;99553.56;333421;29;1738;-73
2022/08/09 00:39:21;;;;;;;534.88;489.45;;;;;;;25.91;51.19;99548.38;334360;29;1004;-73
2022/08/09 00:39:31;;;;;;;535.28;489.70;;;;;;;25.88;51.42;99554.03;330034;29;3751;-73
2022/08/09 00:39:42;;;;;;;535.93;490.33;;;;;;;25.87;51.46;99546.16;329481;29;4950;-73
2022/08/09 00:39:52;;;;;;;539.10;493.47;;;;;;;25.88;51.33;99548.69;332818;29;5093;-73
2022/08/09 00:40:03;;;;;;;534.15;488.63;;;;;;;25.89;51.39;99549.53;336021;29;1366;-73
2022/08/09 00:40:13;;;;;;;525.80;480.50;;;;;;;25.89;51.04;99553.03;333087;29;3571;-73
2022/08/09 00:40:24;;;;;;;522.80;477.50;;;;;;;25.90;51.28;99549.38;333454;29;1610;-73
2022/08/09 00:40:34;;;;;;;527.75;482.25;;;;;;;25.90;51.27;99549.38;330230;29;1780;-73
2022/08/09 00:40:44;;;;;;;530.80;485.03;;;;;;;25.89;51.15;99547.69;329257;29;2182;-73
2022/08/09 00:40:55;;;;;;;535.43;489.57;;;;;;;25.87;50.92;99549.69;330405;29;1826;-74
2022/08/09 00:41:06;;;;;;;536.67;490.75;;;;;;;25.87;51.05;99552.38;325576;30;1408;-74
2022/08/09 00:41:21;;;;;;;544.35;497.63;;;;;;;25.89;51.04;99549.53;327043;30;1777;-74
2022/08/09 00:41:31;;;;;;;546.63;499.75;;;;;;;25.88;51.18;99548.69;329513;29;1289;-74
2022/08/09 00:41:42;;;;;;;548.67;501.83;;;;;;;25.89;51.31;99545.00;330283;29;1255;-74
2022/08/09 00:41:52;;;;;;;544.85;498.88;;;;;;;25.89;51.08;99550.38;326900;30;1371;-74
2022/08/09 00:42:03;;;;;;;547.07;501.13;;;;;;;25.88;51.08;99548.69;321860;30;1783;-74
2022/08/09 00:42:13;;;;;;;542.53;496.77;;;;;;;25.89;51.13;99545.00;320310;30;1885;-74
2022/08/09 00:42:23;;;;;;;535.03;489.47;;;;;;;25.87;51.32;99552.38;319665;30;1290;-74
2022/08/09 00:42:34;;;;;;;536.58;490.90;;;;;;;25.87;51.34;99541.63;324875;30;2193;-74
2022/08/09 00:42:44;;;;;;;539.93;494.23;;;;;;;25.85;51.35;99549.84;328448;29;2398;-74
2022/08/09 00:42:55;;;;;;;547.92;502.05;;;;;;;25.85;51.37;99544.47;331218;29;1234;-74
2022/08/09 00:43:05;;;;;;;544.07;498.23;;;;;;;25.85;51.19;99549.84;325658;30;977;-74
2022/08/09 00:43:16;;;;;;;540.93;495.10;;;;;;;25.87;51.17;99551.53;325475;30;2796;-74
2022/08/09 00:43:26;;;;;;;538.17;492.38;;;;;;;25.85;51.09;99549.84;321805;30;1920;-74
2022/08/09 00:43:36;;;;;;;537.33;491.70;;;;;;;25.87;51.21;99547.00;320686;30;1934;-74
2022/08/09 00:43:50;;;;;;;543.20;497.35;;;;;;;25.87;51.26;99549.69;321194;30;2031;-74
2022/08/09 00:44:00;;;;;;;538.33;492.63;;;;;;;25.87;51.07;99552.38;318645;30;2098;-74
2022/08/09 00:44:11;;;;;;;540.00;494.08;;;;;;;25.88;51.16;99551.38;316614;30;2632;-74
2022/08/09 00:44:21;;;;;;;538.03;492.23;;;;;;;25.88;51.21;99548.69;313899;31;1514;-74
2022/08/09 00:44:32;;;;;;;533.63;488.00;;;;;;;25.88;51.06;99543.31;317870;30;2628;-74
2022/08/09 00:44:42;;;;;;;532.83;487.45;;;;;;;25.89;51.07;99549.53;318617;30;3147;-74
2022/08/09 00:44:53;;;;;;;527.40;482.10;;;;;;;25.88;50.94;99546.00;319781;30;953;-74
2022/08/09 00:45:04;;;;;;;528.75;483.27;;;;;;;25.85;50.84;99552.53;319350;30;3257;-74
2022/08/09 00:45:15;;;;;;;525.17;479.70;;;;;;;25.84;51.12;99548.16;319097;30;3542;-74
2022/08/09 00:45:25;;;;;;;532.63;486.93;;;;;;;25.83;51.11;99542.97;319645;30;3354;-74
2022/08/09 00:45:35;;;;;;;526.60;481.10;;;;;;;25.83;51.17;99548.31;319008;31;856;-74
2022/08/09 00:45:46;;;;;;;526.20;480.85;;;;;;;25.84;51.05;99550.00;319312;30;2570;-74
2022/08/09 00:45:56;;;;;;;521.30;476.13;;;;;;;25.84;50.85;99548.16;318254;30;2694;-74
2022/08/09 00:46:08;;;;;;;528.13;482.75;;;;;;;25.87;51.01;99547.00;320957;30;862;-74
2022/08/09 00:46:18;;;;;;;531.75;486.13;;;;;;;25.87;50.92;99551.53;319025;30;3019;-74
2022/08/09 00:46:29;;;;;;;538.20;492.42;;;;;;;25.88;50.93;99550.53;315756;30;3620;-74
2022/08/09 00:46:40;;;;;;;536.83;491.17;;;;;;;25.89;51.03;99550.38;316404;31;881;-74
2022/08/09 00:46:50;;;;;;;531.58;485.95;;;;;;;25.90;51.07;99552.03;314102;31;987;-74
2022/08/09 00:47:01;;;;;;;532.03;486.43;;;;;;;25.89;50.89;99553.03;311222;31;3749;-74
2022/08/09 00:47:11;;;;;;;534.13;488.43;;;;;;;25.90;50.55;99553.88;309447;31;4162;-74
2022/08/09 00:47:22;;;;;;;542.25;496.35;;;;;;;25.90;50.90;99551.22;312790;31;1286;-74
2022/08/09 00:47:32;;;;;;;540.92;494.90;;;;;;;25.91;50.78;99548.38;311527;31;4602;-74
2022/08/09 00:47:43;;;;;;;539.50;493.50;;;;;;;25.90;50.75;99551.22;310768;31;4856;-74
2022/08/09 00:47:53;;;;;;;536.23;490.53;;;;;;;25.90;50.60;99549.38;310658;31;1567;-74
2022/08/09 00:48:04;;;;;;;533.88;488.33;;;;;;;25.89;50.77;99550.38;311718;31;3572;-74
2022/08/09 00:48:14;;;;;;;534.27;488.60;;;;;;;25.89;50.55;99545.00;307147;31;3292;-74
2022/08/09 00:48:25;;;;;;;535.67;489.83;;;;;;;25.90;50.69;99551.22;307303;32;1364;-74
2022/08/09 00:48:35;;;;;;;536.10;490.37;;;;;;;25.91;50.80;99553.72;304774;32;2743;-74
2022/08/09 00:48:46;;;;;;;529.67;484.17;;;;;;;25.87;51.00;99549.69;300143;32;5304;-74
2022/08/09 00:48:56;;;;;;;524.63;479.50;;;;;;;25.86;50.93;99550.69;300825;32;5617;-74
2022/08/09 00:49:06;;;;;;;527.50;481.90;;;;;;;25.86;50.63;99550.69;304156;32;985;-74
2022/08/09 00:49:17;;;;;;;532.87;487.10;;;;;;;25.86;50.81;99550.69;304645;32;5130;-74
2022/08/09 00:49:27;;;;;;;536.13;490.23;;;;;;;25.86;50.75;99550.69;303638;32;5572;-74
2022/08/09 00:49:38;;;;;;;531.05;485.42;;;;;;;25.87;50.95;99549.69;304234;32;936;-74
2022/08/09 00:49:48;;;;;;;525.10;479.48;;;;;;;25.86;50.80;99553.38;302211;32;6461;-74
2022/08/09 00:49:59;;;;;;;525.70;480.00;;;;;;;25.88;50.86;99554.03;301615;32;6851;-74
2022/08/09 00:50:09;;;;;;;531.07;485.23;;;;;;;25.88;50.76;99554.03;299565;32;1692;-74
2022/08/09 00:50:19;;;;;;;535.92;490.02;;;;;;;25.88;50.87;99546.00;298338;32;5263;-74
2022/08/09 00:50:30;;;;;;;535.13;489.23;;;;;;;25.90;50.53;99549.38;297657;32;4850;-74
2022/08/09 00:50:40;;;;;;;531.90;486.25;;;;;;;25.90;50.60;99552.03;296784;32;6168;-74
2022/08/09 00:50:51;;;;;;;536.57;490.93;;;;;;;25.88;50.65;99548.69;298094;33;933;-74
2022/08/09 00:51:02;;;;;;;532.00;486.45;;;;;;;25.87;50.97;99546.16;296360;33;7652;-74
2022/08/09 00:51:14;;;;;;;528.80;483.20;;;;;;;25.86;50.75;99550.69;292818;33;7947;-74
2022/08/09 00:51:24;;;;;;;528.90;483.30;;;;;;;25.87;50.87;99555.06;291039;34;1404;-74
2022/08/09 00:51:35;;;;;;;533.93;488.23;;;;;;;25.87;50.48;99556.88;286354;34;7714;-74
2022/08/09 00:54:18;;;;;;;488.90;443.35;;;;;;;25.85;51.00;99549.00;2495354;27;20477;-74
2022/08/09 00:54:28;;;;;;;519.93;474.73;;;;;;;25.84;51.03;99548.16;351381;28;2242;-73
2022/08/09 00:54:39;;;;;;;529.73;484.20;;;;;;;25.84;50.67;99548.16;350220;28;1572;-73
2022/08/09 00:54:52;;;;;;;529.17;483.50;;;;;;;25.84;51.08;99552.69;347543;28;1237;-74
2022/08/09 00:55:02;;;;;;;526.92;481.13;;;;;;;25.82;50.97;99549.31;348822;28;888;-73